sensor_id;sensor_type;location;lat;lon;timestamp;P1;durP1;ratioP1;P2;durP2;ratioP2
966;SDS011;56108;48.730;9.304;2023-11-19T00:01:58;4.57;;;3.90;;
966;SDS011;56108;48.730;9.304;2023-11-19T00:04:07;6.65;;;3.80;;
966;SDS011;56108;48.730;9.304;2023-11-19T00:06:15;4.70;;;4.05;;
966;SDS011;56108;48.730;9.304;2023-11-19T00:08:24;4.32;;;3.95;;
966;SDS011;56108;48.730;9.304;2023-11-19T00:10:33;4.40;;;4.00;;
966;SDS011;56108;48.730;9.304;2023-11-19T00:12:44;3.55;;;3.25;;
966;SDS011;56108;48.730;9.304;2023-11-19T00:14:54;4.63;;;4.18;;
966;SDS011;56108;48.730;9.304;2023-11-19T00:16:59;6.30;;;3.55;;
966;SDS011;56108;48.730;9.304;2023-11-19T00:19:08;3.60;;;3.05;;
966;SDS011;56108;48.730;9.304;2023-11-19T00:21:14;4.65;;;3.65;;
966;SDS011;56108;48.730;9.304;2023-11-19T00:23:22;4.13;;;3.20;;
966;SDS011;56108;48.730;9.304;2023-11-19T00:25:31;3.05;;;2.75;;
966;SDS011;56108;48.730;9.304;2023-11-19T00:27:36;4.90;;;2.95;;
966;SDS011;56108;48.730;9.304;2023-11-19T00:29:48;2.58;;;2.38;;
966;SDS011;56108;48.730;9.304;2023-11-19T00:31:56;2.58;;;2.35;;
966;SDS011;56108;48.730;9.304;2023-11-19T00:34:04;4.28;;;3.65;;
966;SDS011;56108;48.730;9.304;2023-11-19T00:36:13;3.00;;;2.70;;
966;SDS011;56108;48.730;9.304;2023-11-19T00:38:22;2.83;;;2.50;;
966;SDS011;56108;48.730;9.304;2023-11-19T00:40:31;2.75;;;2.55;;
966;SDS011;56108;48.730;9.304;2023-11-19T00:42:39;6.60;;;3.17;;
966;SDS011;56108;48.730;9.304;2023-11-19T00:44:48;4.70;;;3.20;;
966;SDS011;56108;48.730;9.304;2023-11-19T00:46:56;3.30;;;2.42;;
966;SDS011;56108;48.730;9.304;2023-11-19T00:49:05;3.60;;;2.88;;
966;SDS011;56108;48.730;9.304;2023-11-19T00:51:16;6.60;;;2.65;;
966;SDS011;56108;48.730;9.304;2023-11-19T00:53:25;3.60;;;2.20;;
966;SDS011;56108;48.730;9.304;2023-11-19T00:55:33;2.85;;;2.63;;
966;SDS011;56108;48.730;9.304;2023-11-19T00:57:50;3.35;;;2.55;;
966;SDS011;56108;48.730;9.304;2023-11-19T01:00:04;2.83;;;2.63;;
966;SDS011;56108;48.730;9.304;2023-11-19T01:02:24;4.00;;;2.53;;
966;SDS011;56108;48.730;9.304;2023-11-19T01:04:33;2.65;;;2.40;;
966;SDS011;56108;48.730;9.304;2023-11-19T01:06:43;2.67;;;2.45;;
966;SDS011;56108;48.730;9.304;2023-11-19T01:08:53;3.05;;;1.95;;
966;SDS011;56108;48.730;9.304;2023-11-19T01:11:00;2.40;;;2.20;;
966;SDS011;56108;48.730;9.304;2023-11-19T01:13:08;2.65;;;2.30;;
966;SDS011;56108;48.730;9.304;2023-11-19T01:15:20;3.05;;;2.75;;
966;SDS011;56108;48.730;9.304;2023-11-19T01:17:28;2.25;;;2.10;;
966;SDS011;56108;48.730;9.304;2023-11-19T01:19:37;3.35;;;2.80;;
966;SDS011;56108;48.730;9.304;2023-11-19T01:21:45;2.10;;;1.95;;
966;SDS011;56108;48.730;9.304;2023-11-19T01:23:54;1.92;;;1.83;;
966;SDS011;56108;48.730;9.304;2023-11-19T01:26:02;1.90;;;1.80;;
966;SDS011;56108;48.730;9.304;2023-11-19T01:28:15;2.50;;;1.85;;
966;SDS011;56108;48.730;9.304;2023-11-19T01:30:26;2.28;;;2.08;;
966;SDS011;56108;48.730;9.304;2023-11-19T01:32:35;2.58;;;2.38;;
966;SDS011;56108;48.730;9.304;2023-11-19T01:34:44;2.88;;;2.60;;
966;SDS011;56108;48.730;9.304;2023-11-19T01:36:52;2.92;;;2.58;;
966;SDS011;56108;48.730;9.304;2023-11-19T01:39:01;3.13;;;2.38;;
966;SDS011;56108;48.730;9.304;2023-11-19T01:41:10;2.45;;;2.25;;
966;SDS011;56108;48.730;9.304;2023-11-19T01:43:31;2.58;;;2.17;;
966;SDS011;56108;48.730;9.304;2023-11-19T01:45:43;2.78;;;2.58;;
966;SDS011;56108;48.730;9.304;2023-11-19T01:47:51;3.70;;;2.10;;
966;SDS011;56108;48.730;9.304;2023-11-19T01:50:00;2.67;;;2.47;;
966;SDS011;56108;48.730;9.304;2023-11-19T01:52:11;3.85;;;1.95;;
966;SDS011;56108;48.730;9.304;2023-11-19T01:54:20;3.67;;;2.45;;
966;SDS011;56108;48.730;9.304;2023-11-19T01:56:28;2.90;;;2.30;;
966;SDS011;56108;48.730;9.304;2023-11-19T01:58:38;1.85;;;1.75;;
966;SDS011;56108;48.730;9.304;2023-11-19T02:00:48;2.20;;;2.00;;
966;SDS011;56108;48.730;9.304;2023-11-19T02:02:57;3.35;;;2.20;;
966;SDS011;56108;48.730;9.304;2023-11-19T02:05:06;2.30;;;2.00;;
966;SDS011;56108;48.730;9.304;2023-11-19T02:07:12;2.50;;;2.30;;
966;SDS011;56108;48.730;9.304;2023-11-19T02:09:22;1.67;;;1.58;;
966;SDS011;56108;48.730;9.304;2023-11-19T02:11:32;1.85;;;1.75;;
966;SDS011;56108;48.730;9.304;2023-11-19T02:13:41;2.45;;;1.70;;
966;SDS011;56108;48.730;9.304;2023-11-19T02:15:53;1.83;;;1.73;;
966;SDS011;56108;48.730;9.304;2023-11-19T02:20:28;1.48;;;1.38;;
966;SDS011;56108;48.730;9.304;2023-11-19T02:22:34;2.58;;;1.85;;
966;SDS011;56108;48.730;9.304;2023-11-19T02:24:42;3.38;;;1.83;;
966;SDS011;56108;48.730;9.304;2023-11-19T02:26:53;1.50;;;1.40;;
966;SDS011;56108;48.730;9.304;2023-11-19T02:29:11;1.83;;;1.70;;
966;SDS011;56108;48.730;9.304;2023-11-19T02:31:20;1.63;;;1.52;;
966;SDS011;56108;48.730;9.304;2023-11-19T02:33:28;2.00;;;1.90;;
966;SDS011;56108;48.730;9.304;2023-11-19T02:35:34;2.40;;;2.20;;
966;SDS011;56108;48.730;9.304;2023-11-19T02:37:42;2.40;;;2.20;;
966;SDS011;56108;48.730;9.304;2023-11-19T02:39:51;3.22;;;2.55;;
966;SDS011;56108;48.730;9.304;2023-11-19T02:41:59;2.05;;;1.90;;
966;SDS011;56108;48.730;9.304;2023-11-19T02:44:07;1.95;;;1.73;;
966;SDS011;56108;48.730;9.304;2023-11-19T02:46:19;2.63;;;2.42;;
966;SDS011;56108;48.730;9.304;2023-11-19T02:48:27;2.30;;;2.10;;
966;SDS011;56108;48.730;9.304;2023-11-19T02:50:35;3.17;;;2.30;;
966;SDS011;56108;48.730;9.304;2023-11-19T02:52:44;2.78;;;2.47;;
966;SDS011;56108;48.730;9.304;2023-11-19T02:54:53;2.50;;;2.30;;
966;SDS011;56108;48.730;9.304;2023-11-19T02:57:02;1.98;;;1.75;;
966;SDS011;56108;48.730;9.304;2023-11-19T02:59:25;3.30;;;2.40;;
966;SDS011;56108;48.730;9.304;2023-11-19T03:01:46;2.45;;;2.03;;
966;SDS011;56108;48.730;9.304;2023-11-19T03:03:55;1.60;;;1.50;;
966;SDS011;56108;48.730;9.304;2023-11-19T03:06:07;1.63;;;1.52;;
966;SDS011;56108;48.730;9.304;2023-11-19T03:08:16;1.55;;;1.55;;
966;SDS011;56108;48.730;9.304;2023-11-19T03:10:28;2.90;;;2.70;;
966;SDS011;56108;48.730;9.304;2023-11-19T03:12:36;1.30;;;1.25;;
966;SDS011;56108;48.730;9.304;2023-11-19T03:14:42;2.47;;;2.28;;
966;SDS011;56108;48.730;9.304;2023-11-19T03:16:55;1.90;;;1.65;;
966;SDS011;56108;48.730;9.304;2023-11-19T03:19:03;2.22;;;2.03;;
966;SDS011;56108;48.730;9.304;2023-11-19T03:21:12;2.15;;;1.60;;
966;SDS011;56108;48.730;9.304;2023-11-19T03:25:45;6.07;;;1.27;;
966;SDS011;56108;48.730;9.304;2023-11-19T03:27:53;1.27;;;1.00;;
966;SDS011;56108;48.730;9.304;2023-11-19T03:30:01;1.15;;;1.15;;
966;SDS011;56108;48.730;9.304;2023-11-19T03:32:13;1.20;;;1.10;;
966;SDS011;56108;48.730;9.304;2023-11-19T03:34:21;0.77;;;0.60;;
966;SDS011;56108;48.730;9.304;2023-11-19T03:36:33;0.70;;;0.65;;
966;SDS011;56108;48.730;9.304;2023-11-19T03:38:41;0.60;;;0.60;;
966;SDS011;56108;48.730;9.304;2023-11-19T03:40:49;1.23;;;1.23;;
966;SDS011;56108;48.730;9.304;2023-11-19T03:42:57;1.20;;;1.20;;
966;SDS011;56108;48.730;9.304;2023-11-19T03:45:06;2.00;;;1.05;;
966;SDS011;56108;48.730;9.304;2023-11-19T03:47:16;2.15;;;0.85;;
966;SDS011;56108;48.730;9.304;2023-11-19T03:49:23;1.40;;;1.30;;
966;SDS011;56108;48.730;9.304;2023-11-19T03:51:32;1.42;;;1.33;;
966;SDS011;56108;48.730;9.304;2023-11-19T03:53:41;1.83;;;1.50;;
966;SDS011;56108;48.730;9.304;2023-11-19T03:55:50;1.50;;;1.40;;
966;SDS011;56108;48.730;9.304;2023-11-19T03:57:58;2.08;;;1.60;;
966;SDS011;56108;48.730;9.304;2023-11-19T04:00:09;2.00;;;1.88;;
966;SDS011;56108;48.730;9.304;2023-11-19T04:02:20;1.75;;;1.65;;
966;SDS011;56108;48.730;9.304;2023-11-19T04:04:32;1.85;;;1.55;;
966;SDS011;56108;48.730;9.304;2023-11-19T04:06:41;2.00;;;1.90;;
966;SDS011;56108;48.730;9.304;2023-11-19T04:08:49;2.53;;;2.35;;
966;SDS011;56108;48.730;9.304;2023-11-19T04:10:59;2.08;;;1.98;;
966;SDS011;56108;48.730;9.304;2023-11-19T04:13:09;2.60;;;2.13;;
966;SDS011;56108;48.730;9.304;2023-11-19T04:15:18;2.28;;;2.08;;
966;SDS011;56108;48.730;9.304;2023-11-19T04:17:32;2.13;;;1.92;;
966;SDS011;56108;48.730;9.304;2023-11-19T04:19:39;1.83;;;1.73;;
966;SDS011;56108;48.730;9.304;2023-11-19T04:21:48;2.80;;;2.40;;
966;SDS011;56108;48.730;9.304;2023-11-19T04:23:57;7.38;;;2.10;;
966;SDS011;56108;48.730;9.304;2023-11-19T04:26:05;3.55;;;1.50;;
966;SDS011;56108;48.730;9.304;2023-11-19T04:28:15;1.52;;;1.45;;
966;SDS011;56108;48.730;9.304;2023-11-19T04:30:24;1.15;;;1.15;;
966;SDS011;56108;48.730;9.304;2023-11-19T04:32:35;0.52;;;0.50;;
966;SDS011;56108;48.730;9.304;2023-11-19T04:34:43;0.68;;;0.50;;
966;SDS011;56108;48.730;9.304;2023-11-19T04:36:52;0.50;;;0.50;;
966;SDS011;56108;48.730;9.304;2023-11-19T04:39:02;0.50;;;0.50;;
966;SDS011;56108;48.730;9.304;2023-11-19T04:41:14;0.57;;;0.57;;
966;SDS011;56108;48.730;9.304;2023-11-19T04:43:23;0.50;;;0.50;;
966;SDS011;56108;48.730;9.304;2023-11-19T04:45:32;0.40;;;0.40;;
966;SDS011;56108;48.730;9.304;2023-11-19T04:47:44;0.68;;;0.63;;
966;SDS011;56108;48.730;9.304;2023-11-19T04:49:52;1.20;;;0.80;;
966;SDS011;56108;48.730;9.304;2023-11-19T04:52:00;0.40;;;0.40;;
966;SDS011;56108;48.730;9.304;2023-11-19T04:54:13;1.17;;;0.70;;
966;SDS011;56108;48.730;9.304;2023-11-19T04:56:21;1.15;;;0.60;;
966;SDS011;56108;48.730;9.304;2023-11-19T04:58:30;0.45;;;0.32;;
966;SDS011;56108;48.730;9.304;2023-11-19T05:00:39;0.40;;;0.40;;
966;SDS011;56108;48.730;9.304;2023-11-19T05:02:50;1.20;;;0.50;;
966;SDS011;56108;48.730;9.304;2023-11-19T05:04:58;0.50;;;0.50;;
966;SDS011;56108;48.730;9.304;2023-11-19T05:07:04;0.40;;;0.40;;
966;SDS011;56108;48.730;9.304;2023-11-19T05:09:13;0.80;;;0.47;;
966;SDS011;56108;48.730;9.304;2023-11-19T05:11:21;0.60;;;0.60;;
966;SDS011;56108;48.730;9.304;2023-11-19T05:13:29;0.60;;;0.50;;
966;SDS011;56108;48.730;9.304;2023-11-19T05:15:35;0.47;;;0.47;;
966;SDS011;56108;48.730;9.304;2023-11-19T05:17:43;0.55;;;0.55;;
966;SDS011;56108;48.730;9.304;2023-11-19T05:19:54;0.35;;;0.35;;
966;SDS011;56108;48.730;9.304;2023-11-19T05:22:03;0.30;;;0.30;;
966;SDS011;56108;48.730;9.304;2023-11-19T05:24:12;0.60;;;0.40;;
966;SDS011;56108;48.730;9.304;2023-11-19T05:26:21;0.50;;;0.50;;
966;SDS011;56108;48.730;9.304;2023-11-19T05:28:30;0.32;;;0.32;;
966;SDS011;56108;48.730;9.304;2023-11-19T05:30:38;0.40;;;0.40;;
966;SDS011;56108;48.730;9.304;2023-11-19T05:32:46;0.40;;;0.40;;
966;SDS011;56108;48.730;9.304;2023-11-19T05:34:57;0.40;;;0.40;;
966;SDS011;56108;48.730;9.304;2023-11-19T05:37:06;0.30;;;0.30;;
966;SDS011;56108;48.730;9.304;2023-11-19T05:39:15;0.50;;;0.30;;
966;SDS011;56108;48.730;9.304;2023-11-19T05:41:24;0.68;;;0.30;;
966;SDS011;56108;48.730;9.304;2023-11-19T05:43:33;0.30;;;0.28;;
966;SDS011;56108;48.730;9.304;2023-11-19T05:45:43;0.40;;;0.40;;
966;SDS011;56108;48.730;9.304;2023-11-19T05:47:51;0.50;;;0.50;;
966;SDS011;56108;48.730;9.304;2023-11-19T05:50:02;0.40;;;0.40;;
966;SDS011;56108;48.730;9.304;2023-11-19T05:52:13;0.30;;;0.30;;
966;SDS011;56108;48.730;9.304;2023-11-19T05:54:21;0.30;;;0.30;;
966;SDS011;56108;48.730;9.304;2023-11-19T05:56:31;0.35;;;0.35;;
966;SDS011;56108;48.730;9.304;2023-11-19T05:58:40;0.85;;;0.20;;
966;SDS011;56108;48.730;9.304;2023-11-19T06:00:49;0.30;;;0.30;;
966;SDS011;56108;48.730;9.304;2023-11-19T06:02:55;0.30;;;0.20;;
966;SDS011;56108;48.730;9.304;2023-11-19T06:05:07;0.40;;;0.40;;
966;SDS011;56108;48.730;9.304;2023-11-19T06:07:16;0.40;;;0.30;;
966;SDS011;56108;48.730;9.304;2023-11-19T06:09:24;0.45;;;0.35;;
966;SDS011;56108;48.730;9.304;2023-11-19T06:11:33;0.30;;;0.30;;
966;SDS011;56108;48.730;9.304;2023-11-19T06:13:45;0.30;;;0.20;;
966;SDS011;56108;48.730;9.304;2023-11-19T06:15:56;0.40;;;0.40;;
966;SDS011;56108;48.730;9.304;2023-11-19T06:18:05;0.43;;;0.43;;
966;SDS011;56108;48.730;9.304;2023-11-19T06:20:16;0.40;;;0.30;;
966;SDS011;56108;48.730;9.304;2023-11-19T06:22:24;0.52;;;0.52;;
966;SDS011;56108;48.730;9.304;2023-11-19T06:24:32;0.30;;;0.25;;
966;SDS011;56108;48.730;9.304;2023-11-19T06:26:45;0.45;;;0.40;;
966;SDS011;56108;48.730;9.304;2023-11-19T06:28:53;0.40;;;0.40;;
966;SDS011;56108;48.730;9.304;2023-11-19T06:31:02;0.45;;;0.35;;
966;SDS011;56108;48.730;9.304;2023-11-19T06:33:12;0.55;;;0.38;;
966;SDS011;56108;48.730;9.304;2023-11-19T06:35:23;0.52;;;0.52;;
966;SDS011;56108;48.730;9.304;2023-11-19T06:37:38;0.73;;;0.73;;
966;SDS011;56108;48.730;9.304;2023-11-19T06:39:46;1.00;;;0.70;;
966;SDS011;56108;48.730;9.304;2023-11-19T06:41:55;0.50;;;0.50;;
966;SDS011;56108;48.730;9.304;2023-11-19T06:44:05;0.65;;;0.65;;
966;SDS011;56108;48.730;9.304;2023-11-19T06:46:17;0.90;;;0.90;;
966;SDS011;56108;48.730;9.304;2023-11-19T06:48:25;0.77;;;0.77;;
966;SDS011;56108;48.730;9.304;2023-11-19T06:50:37;0.60;;;0.60;;
966;SDS011;56108;48.730;9.304;2023-11-19T06:52:46;0.50;;;0.30;;
966;SDS011;56108;48.730;9.304;2023-11-19T06:54:55;0.40;;;0.40;;
966;SDS011;56108;48.730;9.304;2023-11-19T06:57:06;0.47;;;0.47;;
966;SDS011;56108;48.730;9.304;2023-11-19T06:59:14;0.77;;;0.75;;
966;SDS011;56108;48.730;9.304;2023-11-19T07:01:23;0.68;;;0.68;;
966;SDS011;56108;48.730;9.304;2023-11-19T07:03:32;0.70;;;0.57;;
966;SDS011;56108;48.730;9.304;2023-11-19T07:05:45;0.70;;;0.70;;
966;SDS011;56108;48.730;9.304;2023-11-19T07:07:54;0.40;;;0.40;;
966;SDS011;56108;48.730;9.304;2023-11-19T07:10:03;0.40;;;0.40;;
966;SDS011;56108;48.730;9.304;2023-11-19T07:12:13;0.70;;;0.50;;
966;SDS011;56108;48.730;9.304;2023-11-19T07:14:22;1.70;;;0.68;;
966;SDS011;56108;48.730;9.304;2023-11-19T07:16:31;0.55;;;0.55;;
966;SDS011;56108;48.730;9.304;2023-11-19T07:18:42;0.35;;;0.35;;
966;SDS011;56108;48.730;9.304;2023-11-19T07:20:53;0.30;;;0.30;;
966;SDS011;56108;48.730;9.304;2023-11-19T07:22:59;0.40;;;0.40;;
966;SDS011;56108;48.730;9.304;2023-11-19T07:25:08;0.55;;;0.50;;
966;SDS011;56108;48.730;9.304;2023-11-19T07:27:16;0.60;;;0.60;;
966;SDS011;56108;48.730;9.304;2023-11-19T07:29:27;0.95;;;0.50;;
966;SDS011;56108;48.730;9.304;2023-11-19T07:31:36;2.60;;;0.60;;
966;SDS011;56108;48.730;9.304;2023-11-19T07:33:42;0.63;;;0.60;;
966;SDS011;56108;48.730;9.304;2023-11-19T07:35:55;0.60;;;0.60;;
966;SDS011;56108;48.730;9.304;2023-11-19T07:38:06;0.57;;;0.50;;
966;SDS011;56108;48.730;9.304;2023-11-19T07:40:14;0.50;;;0.50;;
966;SDS011;56108;48.730;9.304;2023-11-19T07:42:25;0.70;;;0.70;;
966;SDS011;56108;48.730;9.304;2023-11-19T07:44:33;0.50;;;0.50;;
966;SDS011;56108;48.730;9.304;2023-11-19T07:46:42;0.88;;;0.60;;
966;SDS011;56108;48.730;9.304;2023-11-19T07:48:50;0.68;;;0.60;;
966;SDS011;56108;48.730;9.304;2023-11-19T07:51:02;0.65;;;0.65;;
966;SDS011;56108;48.730;9.304;2023-11-19T07:53:11;0.50;;;0.50;;
966;SDS011;56108;48.730;9.304;2023-11-19T07:55:19;0.88;;;0.70;;
966;SDS011;56108;48.730;9.304;2023-11-19T07:57:27;0.57;;;0.57;;
966;SDS011;56108;48.730;9.304;2023-11-19T07:59:36;0.50;;;0.50;;
966;SDS011;56108;48.730;9.304;2023-11-19T08:01:44;0.70;;;0.70;;
966;SDS011;56108;48.730;9.304;2023-11-19T08:03:52;1.58;;;0.47;;
966;SDS011;56108;48.730;9.304;2023-11-19T08:06:06;0.50;;;0.47;;
966;SDS011;56108;48.730;9.304;2023-11-19T08:08:15;0.43;;;0.43;;
966;SDS011;56108;48.730;9.304;2023-11-19T08:10:23;0.50;;;0.50;;
966;SDS011;56108;48.730;9.304;2023-11-19T08:12:32;0.50;;;0.50;;
966;SDS011;56108;48.730;9.304;2023-11-19T08:14:40;0.75;;;0.40;;
966;SDS011;56108;48.730;9.304;2023-11-19T08:16:51;0.90;;;0.75;;
966;SDS011;56108;48.730;9.304;2023-11-19T08:19:00;0.60;;;0.60;;
966;SDS011;56108;48.730;9.304;2023-11-19T08:21:09;0.50;;;0.50;;
966;SDS011;56108;48.730;9.304;2023-11-19T08:23:18;0.63;;;0.57;;
966;SDS011;56108;48.730;9.304;2023-11-19T08:25:27;0.50;;;0.50;;
966;SDS011;56108;48.730;9.304;2023-11-19T08:27:37;0.50;;;0.47;;
966;SDS011;56108;48.730;9.304;2023-11-19T08:29:46;0.80;;;0.80;;
966;SDS011;56108;48.730;9.304;2023-11-19T08:31:54;0.65;;;0.65;;
966;SDS011;56108;48.730;9.304;2023-11-19T08:34:06;0.70;;;0.70;;
966;SDS011;56108;48.730;9.304;2023-11-19T08:36:20;0.75;;;0.75;;
966;SDS011;56108;48.730;9.304;2023-11-19T08:38:30;1.00;;;1.00;;
966;SDS011;56108;48.730;9.304;2023-11-19T08:40:36;0.57;;;0.57;;
966;SDS011;56108;48.730;9.304;2023-11-19T08:42:45;1.20;;;0.80;;
966;SDS011;56108;48.730;9.304;2023-11-19T08:44:54;0.68;;;0.60;;
966;SDS011;56108;48.730;9.304;2023-11-19T08:47:03;1.08;;;1.08;;
966;SDS011;56108;48.730;9.304;2023-11-19T08:49:12;3.88;;;0.50;;
966;SDS011;56108;48.730;9.304;2023-11-19T08:51:22;0.77;;;0.77;;
966;SDS011;56108;48.730;9.304;2023-11-19T08:53:33;0.60;;;0.60;;
966;SDS011;56108;48.730;9.304;2023-11-19T08:55:41;1.20;;;1.10;;
966;SDS011;56108;48.730;9.304;2023-11-19T08:57:49;0.70;;;0.70;;
966;SDS011;56108;48.730;9.304;2023-11-19T08:59:58;0.45;;;0.45;;
966;SDS011;56108;48.730;9.304;2023-11-19T09:02:04;0.65;;;0.65;;
966;SDS011;56108;48.730;9.304;2023-11-19T09:04:14;0.55;;;0.55;;
966;SDS011;56108;48.730;9.304;2023-11-19T09:06:25;0.52;;;0.52;;
966;SDS011;56108;48.730;9.304;2023-11-19T09:08:33;0.68;;;0.60;;
966;SDS011;56108;48.730;9.304;2023-11-19T09:10:42;0.60;;;0.50;;
966;SDS011;56108;48.730;9.304;2023-11-19T09:12:50;0.60;;;0.50;;
966;SDS011;56108;48.730;9.304;2023-11-19T09:15:02;0.73;;;0.60;;
966;SDS011;56108;48.730;9.304;2023-11-19T09:17:11;1.60;;;0.30;;
966;SDS011;56108;48.730;9.304;2023-11-19T09:19:17;1.50;;;0.45;;
966;SDS011;56108;48.730;9.304;2023-11-19T09:21:28;0.43;;;0.43;;
966;SDS011;56108;48.730;9.304;2023-11-19T09:25:54;3.35;;;0.55;;
966;SDS011;56108;48.730;9.304;2023-11-19T09:28:02;0.63;;;0.63;;
966;SDS011;56108;48.730;9.304;2023-11-19T09:30:11;0.65;;;0.65;;
966;SDS011;56108;48.730;9.304;2023-11-19T09:32:21;0.60;;;0.50;;
966;SDS011;56108;48.730;9.304;2023-11-19T09:34:30;0.40;;;0.40;;
966;SDS011;56108;48.730;9.304;2023-11-19T09:36:41;1.55;;;0.75;;
966;SDS011;56108;48.730;9.304;2023-11-19T09:38:49;0.90;;;0.80;;
966;SDS011;56108;48.730;9.304;2023-11-19T09:40:58;0.80;;;0.80;;
966;SDS011;56108;48.730;9.304;2023-11-19T09:43:06;1.17;;;1.05;;
966;SDS011;56108;48.730;9.304;2023-11-19T09:45:13;1.05;;;0.80;;
966;SDS011;56108;48.730;9.304;2023-11-19T09:47:22;0.68;;;0.68;;
966;SDS011;56108;48.730;9.304;2023-11-19T09:49:34;0.80;;;0.80;;
966;SDS011;56108;48.730;9.304;2023-11-19T09:51:46;0.88;;;0.52;;
966;SDS011;56108;48.730;9.304;2023-11-19T09:53:55;0.90;;;0.90;;
966;SDS011;56108;48.730;9.304;2023-11-19T09:56:03;1.15;;;0.50;;
966;SDS011;56108;48.730;9.304;2023-11-19T09:58:15;0.70;;;0.65;;
966;SDS011;56108;48.730;9.304;2023-11-19T10:00:25;0.90;;;0.90;;
966;SDS011;56108;48.730;9.304;2023-11-19T10:02:33;1.15;;;0.65;;
966;SDS011;56108;48.730;9.304;2023-11-19T10:04:43;0.60;;;0.60;;
966;SDS011;56108;48.730;9.304;2023-11-19T10:06:57;0.73;;;0.32;;
966;SDS011;56108;48.730;9.304;2023-11-19T10:09:06;3.15;;;0.60;;
966;SDS011;56108;48.730;9.304;2023-11-19T10:11:14;0.43;;;0.43;;
966;SDS011;56108;48.730;9.304;2023-11-19T10:13:25;0.50;;;0.50;;
966;SDS011;56108;48.730;9.304;2023-11-19T10:15:36;0.50;;;0.50;;
966;SDS011;56108;48.730;9.304;2023-11-19T10:17:45;0.40;;;0.40;;
966;SDS011;56108;48.730;9.304;2023-11-19T10:19:53;0.68;;;0.68;;
966;SDS011;56108;48.730;9.304;2023-11-19T10:22:05;0.40;;;0.40;;
966;SDS011;56108;48.730;9.304;2023-11-19T10:24:14;0.50;;;0.50;;
966;SDS011;56108;48.730;9.304;2023-11-19T10:26:25;0.50;;;0.47;;
966;SDS011;56108;48.730;9.304;2023-11-19T10:28:38;0.60;;;0.60;;
966;SDS011;56108;48.730;9.304;2023-11-19T10:30:49;0.40;;;0.40;;
966;SDS011;56108;48.730;9.304;2023-11-19T10:33:04;0.60;;;0.38;;
966;SDS011;56108;48.730;9.304;2023-11-19T10:35:13;0.93;;;0.43;;
966;SDS011;56108;48.730;9.304;2023-11-19T10:37:31;0.40;;;0.38;;
966;SDS011;56108;48.730;9.304;2023-11-19T10:39:51;1.15;;;0.80;;
966;SDS011;56108;48.730;9.304;2023-11-19T10:42:07;0.50;;;0.50;;
966;SDS011;56108;48.730;9.304;2023-11-19T10:44:32;1.17;;;0.45;;
966;SDS011;56108;48.730;9.304;2023-11-19T10:46:43;0.40;;;0.40;;
966;SDS011;56108;48.730;9.304;2023-11-19T10:48:51;0.50;;;0.50;;
966;SDS011;56108;48.730;9.304;2023-11-19T10:50:57;0.70;;;0.63;;
966;SDS011;56108;48.730;9.304;2023-11-19T10:53:09;0.47;;;0.47;;
966;SDS011;56108;48.730;9.304;2023-11-19T10:55:19;0.60;;;0.60;;
966;SDS011;56108;48.730;9.304;2023-11-19T10:57:31;0.40;;;0.40;;
966;SDS011;56108;48.730;9.304;2023-11-19T10:59:44;0.60;;;0.43;;
966;SDS011;56108;48.730;9.304;2023-11-19T11:01:54;0.50;;;0.50;;
966;SDS011;56108;48.730;9.304;2023-11-19T11:04:04;1.30;;;0.63;;
966;SDS011;56108;48.730;9.304;2023-11-19T11:06:18;0.43;;;0.40;;
966;SDS011;56108;48.730;9.304;2023-11-19T11:08:31;0.50;;;0.40;;
966;SDS011;56108;48.730;9.304;2023-11-19T11:10:39;0.40;;;0.40;;
966;SDS011;56108;48.730;9.304;2023-11-19T11:12:52;0.50;;;0.40;;
966;SDS011;56108;48.730;9.304;2023-11-19T11:15:03;0.50;;;0.50;;
966;SDS011;56108;48.730;9.304;2023-11-19T11:17:13;1.95;;;0.70;;
966;SDS011;56108;48.730;9.304;2023-11-19T11:19:25;0.40;;;0.30;;
966;SDS011;56108;48.730;9.304;2023-11-19T11:21:34;0.80;;;0.50;;
966;SDS011;56108;48.730;9.304;2023-11-19T11:24:03;0.30;;;0.30;;
966;SDS011;56108;48.730;9.304;2023-11-19T11:26:35;0.60;;;0.60;;
966;SDS011;56108;48.730;9.304;2023-11-19T11:29:04;0.70;;;0.55;;
966;SDS011;56108;48.730;9.304;2023-11-19T11:31:23;0.30;;;0.30;;
966;SDS011;56108;48.730;9.304;2023-11-19T11:34:04;1.25;;;0.80;;
966;SDS011;56108;48.730;9.304;2023-11-19T11:36:36;0.60;;;0.60;;
966;SDS011;56108;48.730;9.304;2023-11-19T11:38:57;1.33;;;0.50;;
966;SDS011;56108;48.730;9.304;2023-11-19T11:41:16;0.90;;;0.90;;
966;SDS011;56108;48.730;9.304;2023-11-19T11:43:44;0.52;;;0.50;;
966;SDS011;56108;48.730;9.304;2023-11-19T11:45:54;1.17;;;0.77;;
966;SDS011;56108;48.730;9.304;2023-11-19T11:48:09;1.10;;;0.52;;
966;SDS011;56108;48.730;9.304;2023-11-19T11:50:20;1.40;;;0.65;;
966;SDS011;56108;48.730;9.304;2023-11-19T11:52:29;1.00;;;0.93;;
966;SDS011;56108;48.730;9.304;2023-11-19T11:54:41;1.17;;;0.70;;
966;SDS011;56108;48.730;9.304;2023-11-19T11:57:00;1.08;;;0.38;;
966;SDS011;56108;48.730;9.304;2023-11-19T11:59:16;1.50;;;0.68;;
966;SDS011;56108;48.730;9.304;2023-11-19T12:01:26;1.80;;;0.70;;
966;SDS011;56108;48.730;9.304;2023-11-19T12:03:37;0.50;;;0.50;;
966;SDS011;56108;48.730;9.304;2023-11-19T12:05:43;0.40;;;0.30;;
966;SDS011;56108;48.730;9.304;2023-11-19T12:07:54;0.60;;;0.50;;
966;SDS011;56108;48.730;9.304;2023-11-19T12:10:17;0.40;;;0.30;;
966;SDS011;56108;48.730;9.304;2023-11-19T12:12:30;0.95;;;0.70;;
966;SDS011;56108;48.730;9.304;2023-11-19T12:19:45;0.60;;;0.50;;
966;SDS011;56108;48.730;9.304;2023-11-19T12:21:54;0.85;;;0.43;;
966;SDS011;56108;48.730;9.304;2023-11-19T12:24:03;0.93;;;0.90;;
966;SDS011;56108;48.730;9.304;2023-11-19T12:28:56;0.50;;;0.40;;
966;SDS011;56108;48.730;9.304;2023-11-19T12:31:07;1.80;;;0.70;;
966;SDS011;56108;48.730;9.304;2023-11-19T12:33:17;1.67;;;0.88;;
966;SDS011;56108;48.730;9.304;2023-11-19T12:35:25;0.65;;;0.63;;
966;SDS011;56108;48.730;9.304;2023-11-19T12:37:34;0.40;;;0.38;;
966;SDS011;56108;48.730;9.304;2023-11-19T12:39:44;0.60;;;0.50;;
966;SDS011;56108;48.730;9.304;2023-11-19T12:41:55;2.95;;;0.50;;
966;SDS011;56108;48.730;9.304;2023-11-19T12:44:10;0.40;;;0.40;;
966;SDS011;56108;48.730;9.304;2023-11-19T12:46:19;0.40;;;0.40;;
966;SDS011;56108;48.730;9.304;2023-11-19T12:48:28;0.50;;;0.50;;
966;SDS011;56108;48.730;9.304;2023-11-19T12:53:02;0.63;;;0.50;;
966;SDS011;56108;48.730;9.304;2023-11-19T12:55:24;0.40;;;0.25;;
966;SDS011;56108;48.730;9.304;2023-11-19T12:57:41;0.40;;;0.30;;
966;SDS011;56108;48.730;9.304;2023-11-19T12:59:56;1.17;;;0.85;;
966;SDS011;56108;48.730;9.304;2023-11-19T13:02:05;0.50;;;0.50;;
966;SDS011;56108;48.730;9.304;2023-11-19T13:04:17;0.80;;;0.70;;
966;SDS011;56108;48.730;9.304;2023-11-19T13:06:26;1.15;;;0.43;;
966;SDS011;56108;48.730;9.304;2023-11-19T13:08:38;1.30;;;0.70;;
966;SDS011;56108;48.730;9.304;2023-11-19T13:10:51;0.40;;;0.40;;
966;SDS011;56108;48.730;9.304;2023-11-19T13:13:04;0.30;;;0.30;;
966;SDS011;56108;48.730;9.304;2023-11-19T13:17:40;0.60;;;0.60;;
966;SDS011;56108;48.730;9.304;2023-11-19T13:19:48;0.88;;;0.88;;
966;SDS011;56108;48.730;9.304;2023-11-19T13:21:57;0.57;;;0.57;;
966;SDS011;56108;48.730;9.304;2023-11-19T13:24:03;0.40;;;0.40;;
966;SDS011;56108;48.730;9.304;2023-11-19T13:26:11;0.50;;;0.50;;
966;SDS011;56108;48.730;9.304;2023-11-19T13:28:22;0.40;;;0.40;;
966;SDS011;56108;48.730;9.304;2023-11-19T13:30:31;0.50;;;0.50;;
966;SDS011;56108;48.730;9.304;2023-11-19T13:32:39;0.60;;;0.40;;
966;SDS011;56108;48.730;9.304;2023-11-19T13:34:48;0.52;;;0.52;;
966;SDS011;56108;48.730;9.304;2023-11-19T13:36:57;0.73;;;0.50;;
966;SDS011;56108;48.730;9.304;2023-11-19T13:39:05;1.75;;;0.30;;
966;SDS011;56108;48.730;9.304;2023-11-19T13:41:13;0.43;;;0.43;;
966;SDS011;56108;48.730;9.304;2023-11-19T13:43:25;0.50;;;0.38;;
966;SDS011;56108;48.730;9.304;2023-11-19T13:45:33;0.73;;;0.70;;
966;SDS011;56108;48.730;9.304;2023-11-19T13:47:43;0.40;;;0.40;;
966;SDS011;56108;48.730;9.304;2023-11-19T13:49:52;0.57;;;0.50;;